N963SF ESMX-EDSB
Flight info
| Callsign | N963SF |
|---|---|
| Flight time | 2h 8m |
| Altitude | 30000 |
| Route | OTVEB DCT SUP DCT KOSEB DCT ROSOK DCT WRB/N0277F290 N850 XAROL/N0278F300 DCT SOGMI DCT BOMBI/N0275F270 N850 UBENO/N0272F230 N850 KRH |
| Aircraft | SF50/L-BDGRSWY/LB2U2 |
Departure
| Time | 2026-05-06 13:48 |
|---|---|
| Airport | Växjö Kronoberg Airport (ESMX) |
Arrival
| Time | 2026-05-06 15:56 |
|---|---|
| Airport | Karlsruhe Baden-Baden Airport (EDSB) |
| Time | Latitude | Longitude | Altitude | Speed | Heading |
|---|---|---|---|---|---|
| 2026-05-06 13:36 | 56.92581 | 14.73101 | 589 ft | 0 kts | 144° |
| 2026-05-06 13:44 | 56.92576 | 14.73097 | 589 ft | 3 kts | 265° |
| 2026-05-06 13:44 | 56.92604 | 14.73070 | 589 ft | 7 kts | 317° |
| 2026-05-06 13:44 | 56.92581 | 14.73019 | 589 ft | 7 kts | 189° |
| 2026-05-06 13:44 | 56.92558 | 14.72978 | 590 ft | 4 kts | 265° |
| 2026-05-06 13:45 | 56.92566 | 14.72913 | 590 ft | 6 kts | 283° |
| 2026-05-06 13:45 | 56.92596 | 14.72706 | 591 ft | 10 kts | 311° |
| 2026-05-06 13:45 | 56.92676 | 14.72692 | 588 ft | 15 kts | 13° |
| 2026-05-06 13:46 | 56.92783 | 14.72741 | 587 ft | 17 kts | 13° |
| 2026-05-06 13:46 | 56.92910 | 14.72796 | 583 ft | 21 kts | 11° |
| 2026-05-06 13:46 | 56.93020 | 14.72819 | 580 ft | 7 kts | 66° |
| 2026-05-06 13:46 | 56.93009 | 14.72837 | 581 ft | 0 kts | 191° |
| 2026-05-06 13:47 | 56.92853 | 14.72772 | 585 ft | 54 kts | 193° |
| 2026-05-06 13:47 | 56.92302 | 14.72537 | 654 ft | 102 kts | 191° |
| 2026-05-06 13:47 | 56.91538 | 14.72184 | 945 ft | 128 kts | 192° |
| 2026-05-06 13:48 | 56.90589 | 14.71823 | 1504 ft | 148 kts | 189° |
| 2026-05-06 13:48 | 56.89507 | 14.71385 | 2059 ft | 166 kts | 192° |
| 2026-05-06 13:48 | 56.88387 | 14.70874 | 2888 ft | 163 kts | 191° |
| 2026-05-06 13:48 | 56.87271 | 14.70387 | 3458 ft | 167 kts | 194° |
| 2026-05-06 13:49 | 56.86373 | 14.69037 | 4035 ft | 174 kts | 235° |
| 2026-05-06 13:49 | 56.85760 | 14.67098 | 4672 ft | 176 kts | 235° |
| 2026-05-06 13:49 | 56.85108 | 14.65178 | 5260 ft | 178 kts | 232° |
| 2026-05-06 13:49 | 56.84249 | 14.63591 | 5896 ft | 176 kts | 213° |
| 2026-05-06 13:50 | 56.83187 | 14.62451 | 6495 ft | 178 kts | 206° |
| 2026-05-06 13:50 | 56.82105 | 14.61332 | 7108 ft | 179 kts | 209° |
| 2026-05-06 13:50 | 56.81029 | 14.60193 | 7712 ft | 179 kts | 210° |
| 2026-05-06 13:50 | 56.79946 | 14.59057 | 8304 ft | 180 kts | 212° |
| 2026-05-06 13:51 | 56.78848 | 14.57900 | 8860 ft | 184 kts | 211° |
| 2026-05-06 13:51 | 56.77733 | 14.56731 | 9463 ft | 186 kts | 212° |
| 2026-05-06 13:51 | 56.76611 | 14.55551 | 10052 ft | 186 kts | 213° |
| 2026-05-06 13:51 | 56.75485 | 14.54375 | 10594 ft | 187 kts | 212° |
| 2026-05-06 13:52 | 56.74359 | 14.53184 | 11142 ft | 187 kts | 212° |
| 2026-05-06 13:52 | 56.73231 | 14.51999 | 11662 ft | 188 kts | 212° |
| 2026-05-06 13:52 | 56.72099 | 14.50812 | 12187 ft | 188 kts | 212° |
| 2026-05-06 13:52 | 56.70962 | 14.49626 | 12706 ft | 189 kts | 212° |
| 2026-05-06 13:53 | 56.69826 | 14.48432 | 13222 ft | 189 kts | 212° |
| 2026-05-06 13:53 | 56.68685 | 14.47236 | 13725 ft | 189 kts | 212° |
| 2026-05-06 13:53 | 56.67540 | 14.46042 | 14158 ft | 190 kts | 213° |
| 2026-05-06 13:53 | 56.66391 | 14.44843 | 14597 ft | 191 kts | 212° |
| 2026-05-06 13:54 | 56.65239 | 14.43642 | 15031 ft | 191 kts | 212° |
| 2026-05-06 13:54 | 56.64084 | 14.42435 | 15456 ft | 192 kts | 213° |
| 2026-05-06 13:54 | 56.62938 | 14.41242 | 15870 ft | 193 kts | 213° |
| 2026-05-06 13:54 | 56.61773 | 14.40025 | 16288 ft | 193 kts | 213° |
| 2026-05-06 13:55 | 56.60605 | 14.38806 | 16697 ft | 194 kts | 213° |
| 2026-05-06 13:55 | 56.59428 | 14.37582 | 17106 ft | 195 kts | 213° |
| 2026-05-06 13:55 | 56.58246 | 14.36355 | 17512 ft | 196 kts | 213° |
| 2026-05-06 13:55 | 56.57060 | 14.35123 | 17912 ft | 197 kts | 213° |
| 2026-05-06 13:56 | 56.55868 | 14.33886 | 18290 ft | 198 kts | 213° |
| 2026-05-06 13:56 | 56.54670 | 14.32643 | 18601 ft | 200 kts | 212° |
| 2026-05-06 13:56 | 56.53448 | 14.31378 | 18916 ft | 202 kts | 212° |
| 2026-05-06 13:56 | 56.52225 | 14.30114 | 19269 ft | 203 kts | 212° |
| 2026-05-06 13:57 | 56.50996 | 14.28842 | 19598 ft | 204 kts | 213° |
| 2026-05-06 13:57 | 56.49764 | 14.27564 | 19934 ft | 204 kts | 212° |
| 2026-05-06 13:57 | 56.48516 | 14.26322 | 20254 ft | 206 kts | 211° |
| 2026-05-06 13:57 | 56.47249 | 14.25120 | 20575 ft | 206 kts | 211° |
| 2026-05-06 13:58 | 56.45982 | 14.23903 | 20922 ft | 206 kts | 211° |
| 2026-05-06 13:58 | 56.44718 | 14.22696 | 21293 ft | 205 kts | 211° |
| 2026-05-06 13:58 | 56.43459 | 14.21500 | 21649 ft | 204 kts | 211° |
| 2026-05-06 13:58 | 56.42206 | 14.20306 | 22009 ft | 203 kts | 211° |
| 2026-05-06 13:59 | 56.40959 | 14.19119 | 22366 ft | 202 kts | 211° |
| 2026-05-06 13:59 | 56.39717 | 14.17941 | 22726 ft | 201 kts | 211° |
| 2026-05-06 13:59 | 56.38480 | 14.16767 | 23089 ft | 200 kts | 211° |
| 2026-05-06 13:59 | 56.37249 | 14.15596 | 23460 ft | 199 kts | 211° |
| 2026-05-06 14:00 | 56.36025 | 14.14432 | 23774 ft | 199 kts | 211° |
| 2026-05-06 14:00 | 56.34803 | 14.13273 | 24079 ft | 198 kts | 211° |
| 2026-05-06 14:00 | 56.33587 | 14.12122 | 24381 ft | 197 kts | 211° |
| 2026-05-06 14:00 | 56.32376 | 14.10973 | 24691 ft | 196 kts | 211° |
| 2026-05-06 14:01 | 56.31170 | 14.09829 | 24998 ft | 196 kts | 211° |
| 2026-05-06 14:01 | 56.29955 | 14.08689 | 25264 ft | 198 kts | 210° |
| 2026-05-06 14:01 | 56.28723 | 14.07523 | 25549 ft | 200 kts | 210° |
| 2026-05-06 14:01 | 56.27497 | 14.06359 | 25884 ft | 199 kts | 210° |
| 2026-05-06 14:02 | 56.26276 | 14.05213 | 26183 ft | 198 kts | 210° |
| 2026-05-06 14:02 | 56.25063 | 14.04064 | 26489 ft | 197 kts | 210° |
| 2026-05-06 14:02 | 56.23847 | 14.02922 | 26796 ft | 196 kts | 209° |
| 2026-05-06 14:02 | 56.22639 | 14.01784 | 27077 ft | 196 kts | 209° |
| 2026-05-06 14:03 | 56.21436 | 14.00647 | 27351 ft | 196 kts | 209° |
| 2026-05-06 14:03 | 56.20225 | 13.99521 | 27668 ft | 196 kts | 208° |
| 2026-05-06 14:03 | 56.19035 | 13.98403 | 27991 ft | 196 kts | 209° |
| 2026-05-06 14:03 | 56.17836 | 13.97260 | 28348 ft | 193 kts | 209° |
| 2026-05-06 14:04 | 56.16628 | 13.96122 | 28646 ft | 194 kts | 208° |
| 2026-05-06 14:04 | 56.15456 | 13.95021 | 28934 ft | 192 kts | 208° |
| 2026-05-06 14:04 | 56.14272 | 13.93921 | 29172 ft | 192 kts | 208° |
| 2026-05-06 14:04 | 56.13088 | 13.92817 | 29458 ft | 191 kts | 208° |
| 2026-05-06 14:05 | 56.11909 | 13.91719 | 29693 ft | 191 kts | 208° |
| 2026-05-06 14:05 | 56.10731 | 13.90617 | 29931 ft | 191 kts | 208° |
| 2026-05-06 14:05 | 56.09521 | 13.89480 | 29940 ft | 202 kts | 208° |
| 2026-05-06 14:05 | 56.08242 | 13.88292 | 29947 ft | 212 kts | 208° |
| 2026-05-06 14:06 | 56.06910 | 13.87051 | 29945 ft | 219 kts | 208° |
| 2026-05-06 14:06 | 56.05539 | 13.85767 | 29933 ft | 225 kts | 208° |
| 2026-05-06 14:06 | 56.04130 | 13.84453 | 29941 ft | 231 kts | 207° |
| 2026-05-06 14:06 | 56.02684 | 13.83109 | 29948 ft | 236 kts | 207° |
| 2026-05-06 14:07 | 56.01216 | 13.81741 | 29945 ft | 240 kts | 207° |
| 2026-05-06 14:07 | 55.99712 | 13.80345 | 29946 ft | 247 kts | 207° |
| 2026-05-06 14:07 | 55.98173 | 13.78913 | 29945 ft | 251 kts | 207° |
| 2026-05-06 14:07 | 55.96604 | 13.77461 | 29947 ft | 257 kts | 207° |
| 2026-05-06 14:08 | 55.95004 | 13.75979 | 29948 ft | 261 kts | 207° |
| 2026-05-06 14:08 | 55.93383 | 13.74476 | 29950 ft | 265 kts | 207° |
| 2026-05-06 14:08 | 55.91736 | 13.72953 | 29948 ft | 268 kts | 207° |
| 2026-05-06 14:08 | 55.90073 | 13.71415 | 29949 ft | 271 kts | 207° |
| 2026-05-06 14:09 | 55.88392 | 13.69864 | 29948 ft | 273 kts | 207° |
| 2026-05-06 14:09 | 55.86697 | 13.68304 | 29947 ft | 276 kts | 207° |
| 2026-05-06 14:09 | 55.84982 | 13.66724 | 29946 ft | 278 kts | 207° |
| 2026-05-06 14:09 | 55.83258 | 13.65135 | 29947 ft | 280 kts | 207° |
| 2026-05-06 14:10 | 55.81528 | 13.63546 | 29941 ft | 281 kts | 207° |
| 2026-05-06 14:10 | 55.79783 | 13.61946 | 29942 ft | 283 kts | 207° |
| 2026-05-06 14:10 | 55.78030 | 13.60340 | 29943 ft | 284 kts | 207° |
| 2026-05-06 14:10 | 55.76284 | 13.58740 | 29943 ft | 282 kts | 207° |
| 2026-05-06 14:11 | 55.74546 | 13.57147 | 29942 ft | 280 kts | 207° |
| 2026-05-06 14:11 | 55.72818 | 13.55566 | 29940 ft | 279 kts | 207° |
| 2026-05-06 14:11 | 55.71088 | 13.53987 | 29939 ft | 280 kts | 207° |
| 2026-05-06 14:11 | 55.69355 | 13.52404 | 29939 ft | 281 kts | 207° |
| 2026-05-06 14:12 | 55.67612 | 13.50814 | 29943 ft | 282 kts | 207° |
| 2026-05-06 14:12 | 55.65865 | 13.49221 | 29941 ft | 283 kts | 207° |
| 2026-05-06 14:12 | 55.64117 | 13.47630 | 29941 ft | 283 kts | 207° |
| 2026-05-06 14:12 | 55.62366 | 13.46038 | 29941 ft | 284 kts | 207° |
| 2026-05-06 14:13 | 55.60610 | 13.44443 | 29938 ft | 284 kts | 207° |
| 2026-05-06 14:13 | 55.58853 | 13.42851 | 29936 ft | 283 kts | 207° |
| 2026-05-06 14:13 | 55.57108 | 13.41268 | 29937 ft | 281 kts | 207° |
| 2026-05-06 14:13 | 55.55367 | 13.39692 | 29921 ft | 282 kts | 207° |
| 2026-05-06 14:14 | 55.53618 | 13.38111 | 29931 ft | 283 kts | 207° |
| 2026-05-06 14:14 | 55.51918 | 13.36355 | 29931 ft | 284 kts | 211° |
| 2026-05-06 14:14 | 55.50227 | 13.34548 | 29932 ft | 285 kts | 211° |
| 2026-05-06 14:14 | 55.48521 | 13.32743 | 29935 ft | 286 kts | 211° |
| 2026-05-06 14:15 | 55.46821 | 13.30952 | 29934 ft | 284 kts | 211° |
| 2026-05-06 14:15 | 55.45126 | 13.29162 | 29933 ft | 284 kts | 211° |
| 2026-05-06 14:15 | 55.43433 | 13.27378 | 29932 ft | 283 kts | 211° |
| 2026-05-06 14:15 | 55.41742 | 13.25597 | 29931 ft | 283 kts | 211° |
| 2026-05-06 14:16 | 55.40058 | 13.23826 | 29934 ft | 282 kts | 211° |
| 2026-05-06 14:16 | 55.38374 | 13.22056 | 29933 ft | 282 kts | 211° |
| 2026-05-06 14:16 | 55.36694 | 13.20292 | 29930 ft | 282 kts | 211° |
| 2026-05-06 14:16 | 55.35013 | 13.18534 | 29929 ft | 281 kts | 211° |
| 2026-05-06 14:17 | 55.33331 | 13.16771 | 29929 ft | 282 kts | 211° |
| 2026-05-06 14:17 | 55.31646 | 13.15000 | 29928 ft | 283 kts | 211° |
| 2026-05-06 14:17 | 55.30006 | 13.13081 | 29927 ft | 284 kts | 214° |
| 2026-05-06 14:17 | 55.28387 | 13.11076 | 29923 ft | 285 kts | 214° |
| 2026-05-06 14:18 | 55.26740 | 13.09126 | 29925 ft | 286 kts | 213° |
| 2026-05-06 14:18 | 55.25086 | 13.07208 | 29925 ft | 284 kts | 213° |
| 2026-05-06 14:18 | 55.23447 | 13.05282 | 29924 ft | 283 kts | 213° |
| 2026-05-06 14:18 | 55.22364 | 13.04004 | 29923 ft | 283 kts | 213° |
| 2026-05-06 14:19 | 55.20734 | 13.02089 | 29922 ft | 282 kts | 213° |
| 2026-05-06 14:19 | 55.19106 | 13.00177 | 29916 ft | 281 kts | 213° |
| 2026-05-06 14:19 | 55.17478 | 12.98267 | 29916 ft | 282 kts | 213° |
| 2026-05-06 14:19 | 55.15323 | 12.95743 | 29915 ft | 283 kts | 213° |
| 2026-05-06 14:20 | 55.13687 | 12.93831 | 29916 ft | 283 kts | 213° |
| 2026-05-06 14:20 | 55.12042 | 12.91914 | 29917 ft | 284 kts | 213° |
| 2026-05-06 14:20 | 55.10399 | 12.90002 | 29917 ft | 285 kts | 213° |
| 2026-05-06 14:20 | 55.09283 | 12.88698 | 29914 ft | 285 kts | 213° |
| 2026-05-06 14:21 | 55.07633 | 12.86771 | 29915 ft | 286 kts | 213° |
| 2026-05-06 14:21 | 55.05980 | 12.84847 | 29916 ft | 286 kts | 213° |
| 2026-05-06 14:21 | 55.04331 | 12.82931 | 29916 ft | 284 kts | 213° |
| 2026-05-06 14:21 | 55.02685 | 12.81022 | 29914 ft | 284 kts | 213° |
| 2026-05-06 14:22 | 55.01067 | 12.79143 | 29914 ft | 283 kts | 213° |
| 2026-05-06 14:22 | 54.99401 | 12.77215 | 29910 ft | 285 kts | 213° |
| 2026-05-06 14:22 | 54.97775 | 12.75332 | 29912 ft | 285 kts | 213° |
| 2026-05-06 14:22 | 54.96121 | 12.73417 | 29923 ft | 285 kts | 213° |
| 2026-05-06 14:23 | 54.94476 | 12.71513 | 29917 ft | 284 kts | 213° |
| 2026-05-06 14:23 | 54.92834 | 12.69619 | 29915 ft | 283 kts | 213° |
| 2026-05-06 14:23 | 54.91194 | 12.67729 | 29910 ft | 283 kts | 213° |
| 2026-05-06 14:23 | 54.89553 | 12.65836 | 29909 ft | 284 kts | 213° |
| 2026-05-06 14:24 | 54.87903 | 12.63934 | 29913 ft | 284 kts | 213° |
| 2026-05-06 14:24 | 54.86255 | 12.62041 | 29911 ft | 284 kts | 213° |
| 2026-05-06 14:24 | 54.84608 | 12.60147 | 29914 ft | 283 kts | 213° |
| 2026-05-06 14:24 | 54.82962 | 12.58259 | 29912 ft | 284 kts | 213° |
| 2026-05-06 14:25 | 54.81313 | 12.56371 | 29902 ft | 284 kts | 213° |
| 2026-05-06 14:25 | 54.79665 | 12.54484 | 29920 ft | 284 kts | 212° |
| 2026-05-06 14:25 | 54.78018 | 12.52598 | 29920 ft | 284 kts | 212° |
| 2026-05-06 14:25 | 54.76367 | 12.50715 | 29920 ft | 284 kts | 212° |
| 2026-05-06 14:26 | 54.74724 | 12.48837 | 29920 ft | 283 kts | 212° |
| 2026-05-06 14:26 | 54.73079 | 12.46961 | 29920 ft | 283 kts | 212° |
| 2026-05-06 14:26 | 54.71427 | 12.45083 | 29914 ft | 284 kts | 212° |
| 2026-05-06 14:26 | 54.69781 | 12.43206 | 29914 ft | 283 kts | 212° |
| 2026-05-06 14:27 | 54.68136 | 12.41329 | 29912 ft | 284 kts | 212° |
| 2026-05-06 14:27 | 54.66487 | 12.39458 | 29913 ft | 283 kts | 212° |
| 2026-05-06 14:27 | 54.64842 | 12.37589 | 29913 ft | 283 kts | 212° |
| 2026-05-06 14:27 | 54.63193 | 12.35718 | 29895 ft | 283 kts | 212° |
| 2026-05-06 14:28 | 54.61547 | 12.33853 | 29897 ft | 282 kts | 212° |
| 2026-05-06 14:28 | 54.59905 | 12.31995 | 29896 ft | 284 kts | 212° |
| 2026-05-06 14:28 | 54.58249 | 12.30123 | 29899 ft | 284 kts | 212° |
| 2026-05-06 14:28 | 54.56597 | 12.28259 | 29898 ft | 284 kts | 212° |
| 2026-05-06 14:29 | 54.54949 | 12.26395 | 29901 ft | 282 kts | 212° |
| 2026-05-06 14:29 | 54.53314 | 12.24553 | 29888 ft | 282 kts | 212° |
| 2026-05-06 14:29 | 54.51672 | 12.22710 | 29891 ft | 281 kts | 212° |
| 2026-05-06 14:29 | 54.50031 | 12.20862 | 29889 ft | 282 kts | 212° |
| 2026-05-06 14:30 | 54.48384 | 12.19008 | 29888 ft | 283 kts | 212° |
| 2026-05-06 14:30 | 54.46741 | 12.17161 | 29887 ft | 282 kts | 212° |
| 2026-05-06 14:30 | 54.45097 | 12.15320 | 29891 ft | 281 kts | 212° |
| 2026-05-06 14:30 | 54.43465 | 12.13489 | 29879 ft | 280 kts | 212° |
| 2026-05-06 14:31 | 54.41828 | 12.11657 | 29877 ft | 281 kts | 212° |
| 2026-05-06 14:31 | 54.40211 | 12.09848 | 29874 ft | 282 kts | 212° |
| 2026-05-06 14:31 | 54.38561 | 12.08000 | 29879 ft | 283 kts | 211° |
| 2026-05-06 14:31 | 54.36912 | 12.06159 | 29878 ft | 282 kts | 212° |
| 2026-05-06 14:32 | 54.35263 | 12.04324 | 29876 ft | 282 kts | 211° |
| 2026-05-06 14:32 | 54.33621 | 12.02493 | 29875 ft | 282 kts | 211° |
| 2026-05-06 14:32 | 54.31972 | 12.00657 | 29876 ft | 283 kts | 211° |
| 2026-05-06 14:32 | 54.30320 | 11.98817 | 29873 ft | 284 kts | 211° |
| 2026-05-06 14:33 | 54.28665 | 11.96984 | 29875 ft | 283 kts | 211° |
| 2026-05-06 14:33 | 54.27019 | 11.95159 | 29875 ft | 282 kts | 211° |
| 2026-05-06 14:33 | 54.25373 | 11.93327 | 29871 ft | 282 kts | 211° |
| 2026-05-06 14:33 | 54.23733 | 11.91513 | 29869 ft | 281 kts | 210° |
| 2026-05-06 14:34 | 54.22086 | 11.89693 | 29869 ft | 282 kts | 211° |
| 2026-05-06 14:34 | 54.20441 | 11.87871 | 29865 ft | 282 kts | 211° |
| 2026-05-06 14:34 | 54.18787 | 11.86046 | 29869 ft | 283 kts | 211° |
| 2026-05-06 14:34 | 54.17133 | 11.84220 | 29871 ft | 283 kts | 211° |
| 2026-05-06 14:35 | 54.15477 | 11.82393 | 29861 ft | 285 kts | 211° |
| 2026-05-06 14:35 | 54.13811 | 11.80556 | 29863 ft | 286 kts | 211° |
| 2026-05-06 14:35 | 54.12134 | 11.78712 | 29864 ft | 287 kts | 211° |
| 2026-05-06 14:35 | 54.10455 | 11.76864 | 29863 ft | 288 kts | 211° |
| 2026-05-06 14:36 | 54.08764 | 11.75009 | 29868 ft | 290 kts | 211° |
| 2026-05-06 14:36 | 54.07074 | 11.73154 | 29865 ft | 289 kts | 211° |
| 2026-05-06 14:36 | 54.05379 | 11.71295 | 29867 ft | 289 kts | 211° |
| 2026-05-06 14:36 | 54.03688 | 11.69444 | 29867 ft | 289 kts | 211° |
| 2026-05-06 14:37 | 54.01997 | 11.67597 | 29866 ft | 289 kts | 210° |
| 2026-05-06 14:37 | 54.00310 | 11.65751 | 29863 ft | 289 kts | 211° |
| 2026-05-06 14:37 | 53.98613 | 11.63899 | 29884 ft | 290 kts | 209° |
| 2026-05-06 14:37 | 53.96929 | 11.62066 | 29872 ft | 286 kts | 210° |
| 2026-05-06 14:38 | 53.95265 | 11.60247 | 29872 ft | 283 kts | 210° |
| 2026-05-06 14:38 | 53.93598 | 11.58442 | 29860 ft | 285 kts | 210° |
| 2026-05-06 14:38 | 53.91925 | 11.56620 | 29858 ft | 287 kts | 210° |
| 2026-05-06 14:38 | 53.90246 | 11.54786 | 29860 ft | 288 kts | 210° |
| 2026-05-06 14:39 | 53.88548 | 11.52947 | 29858 ft | 290 kts | 210° |
| 2026-05-06 14:39 | 53.86846 | 11.51102 | 29859 ft | 291 kts | 210° |
| 2026-05-06 14:39 | 53.85132 | 11.49245 | 29861 ft | 292 kts | 210° |
| 2026-05-06 14:39 | 53.83422 | 11.47394 | 29863 ft | 293 kts | 210° |
| 2026-05-06 14:40 | 53.81710 | 11.45540 | 29867 ft | 292 kts | 210° |
| 2026-05-06 14:40 | 53.80001 | 11.43695 | 29858 ft | 291 kts | 210° |
| 2026-05-06 14:40 | 53.78299 | 11.41861 | 29855 ft | 290 kts | 210° |
| 2026-05-06 14:40 | 53.76604 | 11.40034 | 29855 ft | 288 kts | 210° |
| 2026-05-06 14:41 | 53.74911 | 11.38211 | 29853 ft | 288 kts | 210° |
| 2026-05-06 14:41 | 53.73216 | 11.36389 | 29853 ft | 290 kts | 210° |
| 2026-05-06 14:41 | 53.71515 | 11.34559 | 29855 ft | 291 kts | 210° |
| 2026-05-06 14:41 | 53.69805 | 11.32726 | 29853 ft | 292 kts | 209° |
| 2026-05-06 14:42 | 53.68091 | 11.30887 | 29853 ft | 293 kts | 210° |
| 2026-05-06 14:42 | 53.66371 | 11.29041 | 29857 ft | 294 kts | 210° |
| 2026-05-06 14:42 | 53.64645 | 11.27191 | 29862 ft | 295 kts | 209° |
| 2026-05-06 14:42 | 53.62911 | 11.25338 | 29863 ft | 295 kts | 209° |
| 2026-05-06 14:43 | 53.61175 | 11.23482 | 29860 ft | 296 kts | 210° |
| 2026-05-06 14:43 | 53.59438 | 11.21627 | 29858 ft | 295 kts | 209° |
| 2026-05-06 14:43 | 53.57711 | 11.19784 | 29855 ft | 293 kts | 209° |
| 2026-05-06 14:43 | 53.56000 | 11.17959 | 29853 ft | 291 kts | 209° |
| 2026-05-06 14:44 | 53.54290 | 11.16141 | 29854 ft | 291 kts | 209° |
| 2026-05-06 14:44 | 53.52572 | 11.14316 | 29855 ft | 293 kts | 209° |
| 2026-05-06 14:44 | 53.50848 | 11.12485 | 29849 ft | 293 kts | 209° |
| 2026-05-06 14:45 | 53.47390 | 11.08817 | 29852 ft | 295 kts | 209° |
| 2026-05-06 14:45 | 53.45651 | 11.06975 | 29851 ft | 296 kts | 209° |
| 2026-05-06 14:45 | 53.43907 | 11.05131 | 29854 ft | 297 kts | 209° |
| 2026-05-06 14:45 | 53.42155 | 11.03279 | 29846 ft | 298 kts | 209° |
| 2026-05-06 14:46 | 53.40397 | 11.01421 | 29847 ft | 299 kts | 209° |
| 2026-05-06 14:46 | 53.38635 | 10.99561 | 29848 ft | 299 kts | 209° |
| 2026-05-06 14:46 | 53.36879 | 10.97708 | 29847 ft | 298 kts | 209° |
| 2026-05-06 14:46 | 53.35130 | 10.95866 | 29845 ft | 297 kts | 209° |
| 2026-05-06 14:47 | 53.33387 | 10.94035 | 29845 ft | 296 kts | 209° |
| 2026-05-06 14:47 | 53.31648 | 10.92206 | 29842 ft | 295 kts | 209° |
| 2026-05-06 14:47 | 53.29914 | 10.90385 | 29842 ft | 294 kts | 209° |
| 2026-05-06 14:47 | 53.28176 | 10.88561 | 29841 ft | 295 kts | 209° |
| 2026-05-06 14:48 | 53.26432 | 10.86736 | 29842 ft | 296 kts | 209° |
| 2026-05-06 14:48 | 53.24681 | 10.84906 | 29840 ft | 297 kts | 209° |
| 2026-05-06 14:48 | 53.22936 | 10.83078 | 29836 ft | 294 kts | 210° |
| 2026-05-06 14:48 | 53.21219 | 10.81277 | 29833 ft | 290 kts | 209° |
| 2026-05-06 14:49 | 53.19508 | 10.79496 | 29832 ft | 291 kts | 209° |
| 2026-05-06 14:49 | 53.17785 | 10.77707 | 29840 ft | 292 kts | 208° |
| 2026-05-06 14:49 | 53.16057 | 10.75909 | 29841 ft | 294 kts | 209° |
| 2026-05-06 14:49 | 53.14322 | 10.74100 | 29840 ft | 295 kts | 209° |
| 2026-05-06 14:50 | 53.12579 | 10.72282 | 29839 ft | 297 kts | 209° |
| 2026-05-06 14:50 | 53.10820 | 10.70458 | 29839 ft | 298 kts | 209° |
| 2026-05-06 14:50 | 53.09055 | 10.68626 | 29841 ft | 300 kts | 209° |
| 2026-05-06 14:50 | 53.07291 | 10.66797 | 29841 ft | 298 kts | 209° |
| 2026-05-06 14:51 | 53.05534 | 10.64974 | 29837 ft | 297 kts | 209° |
| 2026-05-06 14:51 | 53.03786 | 10.63166 | 29835 ft | 296 kts | 208° |
| 2026-05-06 14:51 | 53.02041 | 10.61360 | 29834 ft | 295 kts | 208° |
| 2026-05-06 14:51 | 53.00298 | 10.59561 | 29837 ft | 295 kts | 208° |
| 2026-05-06 14:52 | 52.98548 | 10.57758 | 29841 ft | 297 kts | 208° |
| 2026-05-06 14:52 | 52.96788 | 10.55945 | 29833 ft | 299 kts | 209° |
| 2026-05-06 14:52 | 52.95020 | 10.54124 | 29830 ft | 299 kts | 209° |
| 2026-05-06 14:52 | 52.93260 | 10.52313 | 29826 ft | 297 kts | 208° |
| 2026-05-06 14:53 | 52.91515 | 10.50519 | 29824 ft | 294 kts | 208° |
| 2026-05-06 14:53 | 52.89772 | 10.48733 | 29821 ft | 295 kts | 208° |
| 2026-05-06 14:53 | 52.88024 | 10.46939 | 29820 ft | 296 kts | 208° |
| 2026-05-06 14:53 | 52.86270 | 10.45143 | 29820 ft | 297 kts | 208° |
| 2026-05-06 14:54 | 52.84508 | 10.43336 | 29821 ft | 298 kts | 208° |
| 2026-05-06 14:54 | 52.82745 | 10.41534 | 29824 ft | 299 kts | 208° |
| 2026-05-06 14:54 | 52.80975 | 10.39723 | 29827 ft | 299 kts | 208° |
| 2026-05-06 14:54 | 52.79207 | 10.37917 | 29828 ft | 297 kts | 210° |
| 2026-05-06 14:55 | 52.77462 | 10.36134 | 29823 ft | 293 kts | 209° |
| 2026-05-06 14:55 | 52.75738 | 10.34380 | 29818 ft | 290 kts | 209° |
| 2026-05-06 14:55 | 52.74016 | 10.32632 | 29814 ft | 292 kts | 209° |
| 2026-05-06 14:55 | 52.72285 | 10.30872 | 29822 ft | 292 kts | 209° |
| 2026-05-06 14:56 | 52.70550 | 10.29109 | 29821 ft | 294 kts | 210° |
| 2026-05-06 14:56 | 52.68805 | 10.27339 | 29827 ft | 295 kts | 209° |
| 2026-05-06 14:56 | 52.67059 | 10.25567 | 29828 ft | 295 kts | 209° |
| 2026-05-06 14:56 | 52.65316 | 10.23800 | 29829 ft | 294 kts | 210° |
| 2026-05-06 14:57 | 52.63573 | 10.22038 | 29828 ft | 293 kts | 210° |
| 2026-05-06 14:57 | 52.61837 | 10.20284 | 29826 ft | 293 kts | 210° |
| 2026-05-06 14:57 | 52.60093 | 10.18523 | 29826 ft | 294 kts | 209° |
| 2026-05-06 14:57 | 52.58350 | 10.16762 | 29828 ft | 295 kts | 210° |
| 2026-05-06 14:58 | 52.56602 | 10.15000 | 29836 ft | 295 kts | 211° |
| 2026-05-06 14:58 | 52.54872 | 10.13256 | 29838 ft | 289 kts | 212° |
| 2026-05-06 14:58 | 52.53167 | 10.11535 | 29832 ft | 287 kts | 212° |
| 2026-05-06 14:58 | 52.51460 | 10.09822 | 29830 ft | 288 kts | 212° |
| 2026-05-06 14:59 | 52.49745 | 10.08098 | 29832 ft | 290 kts | 212° |
| 2026-05-06 14:59 | 52.48018 | 10.06364 | 29833 ft | 292 kts | 212° |
| 2026-05-06 14:59 | 52.46287 | 10.04627 | 29832 ft | 291 kts | 212° |
| 2026-05-06 14:59 | 52.44561 | 10.02900 | 29831 ft | 290 kts | 212° |
| 2026-05-06 15:00 | 52.42845 | 10.01183 | 29829 ft | 288 kts | 212° |
| 2026-05-06 15:00 | 52.41137 | 9.99474 | 29826 ft | 287 kts | 212° |
| 2026-05-06 15:00 | 52.39431 | 9.97770 | 29824 ft | 288 kts | 212° |
| 2026-05-06 15:00 | 52.37715 | 9.96058 | 29829 ft | 289 kts | 211° |
| 2026-05-06 15:01 | 52.35991 | 9.94343 | 29833 ft | 291 kts | 211° |
| 2026-05-06 15:01 | 52.34262 | 9.92618 | 29819 ft | 291 kts | 212° |
| 2026-05-06 15:01 | 52.32539 | 9.90903 | 29821 ft | 288 kts | 212° |
| 2026-05-06 15:01 | 52.30831 | 9.89207 | 29818 ft | 287 kts | 212° |
| 2026-05-06 15:02 | 52.29122 | 9.87504 | 29816 ft | 288 kts | 212° |
| 2026-05-06 15:02 | 52.27403 | 9.85800 | 29816 ft | 289 kts | 212° |
| 2026-05-06 15:02 | 52.26242 | 9.84648 | 29816 ft | 290 kts | 212° |
| 2026-05-06 15:02 | 52.24537 | 9.82957 | 29817 ft | 291 kts | 212° |
| 2026-05-06 15:03 | 52.22806 | 9.81240 | 29820 ft | 292 kts | 212° |
| 2026-05-06 15:03 | 52.21070 | 9.79525 | 29820 ft | 291 kts | 212° |
| 2026-05-06 15:03 | 52.19344 | 9.77820 | 29818 ft | 290 kts | 212° |
| 2026-05-06 15:03 | 52.17623 | 9.76121 | 29814 ft | 288 kts | 212° |
| 2026-05-06 15:04 | 52.15912 | 9.74434 | 29808 ft | 287 kts | 212° |
| 2026-05-06 15:04 | 52.14204 | 9.72750 | 29805 ft | 288 kts | 212° |
| 2026-05-06 15:04 | 52.12484 | 9.71058 | 29804 ft | 289 kts | 212° |
| 2026-05-06 15:04 | 52.10763 | 9.69366 | 29806 ft | 289 kts | 212° |
| 2026-05-06 15:05 | 52.09036 | 9.67667 | 29806 ft | 290 kts | 212° |
| 2026-05-06 15:05 | 52.07307 | 9.65970 | 29804 ft | 291 kts | 212° |
| 2026-05-06 15:05 | 52.05571 | 9.64265 | 29803 ft | 292 kts | 212° |
| 2026-05-06 15:05 | 52.03831 | 9.62558 | 29805 ft | 292 kts | 212° |
| 2026-05-06 15:06 | 52.02092 | 9.60856 | 29808 ft | 292 kts | 212° |
| 2026-05-06 15:06 | 52.00357 | 9.59161 | 29810 ft | 290 kts | 212° |
| 2026-05-06 15:06 | 51.98631 | 9.57475 | 29804 ft | 290 kts | 212° |
| 2026-05-06 15:06 | 51.96908 | 9.55787 | 29801 ft | 288 kts | 212° |
| 2026-05-06 15:07 | 51.95195 | 9.54115 | 29802 ft | 287 kts | 212° |
| 2026-05-06 15:07 | 51.93479 | 9.52443 | 29801 ft | 289 kts | 212° |
| 2026-05-06 15:07 | 51.91756 | 9.50764 | 29803 ft | 290 kts | 212° |
| 2026-05-06 15:07 | 51.90021 | 9.49078 | 29789 ft | 291 kts | 211° |
| 2026-05-06 15:08 | 51.88281 | 9.47384 | 29800 ft | 293 kts | 211° |
| 2026-05-06 15:08 | 51.86531 | 9.45686 | 29799 ft | 293 kts | 211° |
| 2026-05-06 15:08 | 51.84782 | 9.43992 | 29800 ft | 293 kts | 211° |
| 2026-05-06 15:08 | 51.83039 | 9.42299 | 29800 ft | 292 kts | 211° |
| 2026-05-06 15:09 | 51.81301 | 9.40616 | 29798 ft | 291 kts | 211° |
| 2026-05-06 15:09 | 51.79568 | 9.38940 | 29794 ft | 290 kts | 211° |
| 2026-05-06 15:09 | 51.77839 | 9.37267 | 29794 ft | 289 kts | 211° |
| 2026-05-06 15:09 | 51.76111 | 9.35597 | 29793 ft | 289 kts | 211° |
| 2026-05-06 15:10 | 51.74385 | 9.33929 | 29801 ft | 290 kts | 211° |
| 2026-05-06 15:10 | 51.72650 | 9.32258 | 29802 ft | 291 kts | 211° |
| 2026-05-06 15:10 | 51.70913 | 9.30584 | 29798 ft | 292 kts | 211° |
| 2026-05-06 15:10 | 51.69169 | 9.28904 | 29799 ft | 292 kts | 211° |
| 2026-05-06 15:11 | 51.67424 | 9.27226 | 29796 ft | 292 kts | 211° |
| 2026-05-06 15:11 | 51.65706 | 9.25577 | 29798 ft | 284 kts | 211° |
| 2026-05-06 15:11 | 51.64018 | 9.23955 | 29791 ft | 282 kts | 211° |
| 2026-05-06 15:11 | 51.62326 | 9.22334 | 29791 ft | 284 kts | 211° |
| 2026-05-06 15:12 | 51.60624 | 9.20702 | 29791 ft | 285 kts | 211° |
| 2026-05-06 15:12 | 51.58915 | 9.19067 | 29794 ft | 286 kts | 211° |
| 2026-05-06 15:12 | 51.57201 | 9.17428 | 29795 ft | 287 kts | 211° |
| 2026-05-06 15:12 | 51.55483 | 9.15787 | 29798 ft | 287 kts | 211° |
| 2026-05-06 15:13 | 51.53765 | 9.14147 | 29796 ft | 286 kts | 211° |
| 2026-05-06 15:13 | 51.52059 | 9.12518 | 29796 ft | 285 kts | 211° |
| 2026-05-06 15:13 | 51.50288 | 9.11124 | 29794 ft | 284 kts | 200° |
| 2026-05-06 15:13 | 51.48373 | 9.10343 | 29797 ft | 284 kts | 193° |
| 2026-05-06 15:14 | 51.46436 | 9.09697 | 29796 ft | 285 kts | 193° |
| 2026-05-06 15:14 | 51.44498 | 9.09025 | 29796 ft | 281 kts | 194° |
| 2026-05-06 15:14 | 51.42629 | 9.08384 | 29793 ft | 270 kts | 194° |
| 2026-05-06 15:14 | 51.40799 | 9.07763 | 29788 ft | 270 kts | 194° |
| 2026-05-06 15:15 | 51.38953 | 9.07137 | 29784 ft | 272 kts | 194° |
| 2026-05-06 15:15 | 51.37096 | 9.06505 | 29786 ft | 274 kts | 194° |
| 2026-05-06 15:15 | 51.35231 | 9.05873 | 29783 ft | 275 kts | 194° |
| 2026-05-06 15:15 | 51.33356 | 9.05237 | 29786 ft | 276 kts | 194° |
| 2026-05-06 15:16 | 51.31475 | 9.04611 | 29779 ft | 276 kts | 193° |
| 2026-05-06 15:16 | 51.29567 | 9.04239 | 29781 ft | 276 kts | 189° |
| 2026-05-06 15:16 | 51.27663 | 9.03882 | 29778 ft | 275 kts | 189° |
| 2026-05-06 15:16 | 51.25768 | 9.03512 | 29779 ft | 275 kts | 189° |
| 2026-05-06 15:17 | 51.23866 | 9.03150 | 29777 ft | 275 kts | 189° |
| 2026-05-06 15:17 | 51.21966 | 9.02801 | 29773 ft | 274 kts | 189° |
| 2026-05-06 15:17 | 51.20085 | 9.02446 | 29774 ft | 270 kts | 189° |
| 2026-05-06 15:17 | 51.18231 | 9.02094 | 29770 ft | 268 kts | 189° |
| 2026-05-06 15:18 | 51.16376 | 9.01744 | 29771 ft | 269 kts | 189° |
| 2026-05-06 15:18 | 51.14514 | 9.01391 | 29771 ft | 271 kts | 189° |
| 2026-05-06 15:18 | 51.12639 | 9.01039 | 29771 ft | 272 kts | 189° |
| 2026-05-06 15:18 | 51.10757 | 9.00685 | 29771 ft | 273 kts | 189° |
| 2026-05-06 15:19 | 51.08872 | 9.00330 | 29771 ft | 273 kts | 189° |
| 2026-05-06 15:19 | 51.06989 | 8.99979 | 29771 ft | 272 kts | 189° |
| 2026-05-06 15:19 | 51.05113 | 8.99627 | 29770 ft | 271 kts | 189° |
| 2026-05-06 15:19 | 51.03239 | 8.99277 | 29770 ft | 271 kts | 189° |
| 2026-05-06 15:20 | 51.01370 | 8.98927 | 29772 ft | 270 kts | 189° |
| 2026-05-06 15:20 | 50.99499 | 8.98578 | 29771 ft | 270 kts | 189° |
| 2026-05-06 15:20 | 50.97630 | 8.98229 | 29765 ft | 271 kts | 189° |
| 2026-05-06 15:20 | 50.95753 | 8.97877 | 29766 ft | 272 kts | 189° |
| 2026-05-06 15:21 | 50.93867 | 8.97525 | 29765 ft | 274 kts | 189° |
| 2026-05-06 15:21 | 50.91971 | 8.97170 | 29764 ft | 275 kts | 189° |
| 2026-05-06 15:21 | 50.90069 | 8.96816 | 29766 ft | 276 kts | 189° |
| 2026-05-06 15:21 | 50.88168 | 8.96461 | 29765 ft | 274 kts | 189° |
| 2026-05-06 15:22 | 50.86280 | 8.96110 | 29762 ft | 273 kts | 189° |
| 2026-05-06 15:22 | 50.84395 | 8.95761 | 29762 ft | 272 kts | 189° |
| 2026-05-06 15:22 | 50.82516 | 8.95408 | 29761 ft | 271 kts | 189° |
| 2026-05-06 15:22 | 50.80638 | 8.95064 | 29753 ft | 271 kts | 189° |
| 2026-05-06 15:23 | 50.78758 | 8.94720 | 29761 ft | 273 kts | 189° |
| 2026-05-06 15:23 | 50.76874 | 8.94364 | 29760 ft | 273 kts | 189° |
| 2026-05-06 15:23 | 50.74988 | 8.94013 | 29760 ft | 273 kts | 189° |
| 2026-05-06 15:23 | 50.73101 | 8.93670 | 29761 ft | 274 kts | 189° |
| 2026-05-06 15:24 | 50.71210 | 8.93319 | 29758 ft | 274 kts | 189° |
| 2026-05-06 15:24 | 50.69314 | 8.92966 | 29759 ft | 274 kts | 189° |
| 2026-05-06 15:24 | 50.67419 | 8.92620 | 29760 ft | 275 kts | 189° |
| 2026-05-06 15:24 | 50.65517 | 8.92270 | 29760 ft | 275 kts | 189° |
| 2026-05-06 15:25 | 50.63620 | 8.91921 | 29759 ft | 275 kts | 189° |
| 2026-05-06 15:25 | 50.61725 | 8.91571 | 29758 ft | 273 kts | 189° |
| 2026-05-06 15:25 | 50.59843 | 8.91224 | 29758 ft | 273 kts | 189° |
| 2026-05-06 15:25 | 50.57958 | 8.90876 | 29757 ft | 272 kts | 189° |
| 2026-05-06 15:26 | 50.56080 | 8.90531 | 29758 ft | 272 kts | 189° |
| 2026-05-06 15:26 | 50.54205 | 8.90188 | 29757 ft | 271 kts | 189° |
| 2026-05-06 15:26 | 50.52333 | 8.89835 | 29760 ft | 271 kts | 189° |
| 2026-05-06 15:26 | 50.50456 | 8.89420 | 29760 ft | 273 kts | 189° |
| 2026-05-06 15:27 | 50.48565 | 8.89030 | 29761 ft | 275 kts | 188° |
| 2026-05-06 15:27 | 50.46671 | 8.88637 | 29763 ft | 275 kts | 189° |
| 2026-05-06 15:27 | 50.44765 | 8.88228 | 29764 ft | 277 kts | 189° |
| 2026-05-06 15:27 | 50.42860 | 8.87824 | 29771 ft | 276 kts | 189° |
| 2026-05-06 15:28 | 50.40958 | 8.87427 | 29768 ft | 275 kts | 189° |
| 2026-05-06 15:28 | 50.39087 | 8.87027 | 29767 ft | 275 kts | 189° |
| 2026-05-06 15:28 | 50.37189 | 8.86629 | 29766 ft | 275 kts | 189° |
| 2026-05-06 15:28 | 50.35297 | 8.86237 | 29767 ft | 275 kts | 189° |
| 2026-05-06 15:29 | 50.33402 | 8.85838 | 29769 ft | 274 kts | 189° |
| 2026-05-06 15:29 | 50.31515 | 8.85435 | 29770 ft | 273 kts | 189° |
| 2026-05-06 15:29 | 50.29628 | 8.85038 | 29768 ft | 275 kts | 188° |
| 2026-05-06 15:29 | 50.27731 | 8.84642 | 29771 ft | 276 kts | 188° |
| 2026-05-06 15:30 | 50.25798 | 8.84235 | 29775 ft | 277 kts | 188° |
| 2026-05-06 15:30 | 50.23883 | 8.83829 | 29782 ft | 279 kts | 188° |
| 2026-05-06 15:30 | 50.21951 | 8.83426 | 29784 ft | 281 kts | 188° |
| 2026-05-06 15:30 | 50.20021 | 8.83026 | 29785 ft | 279 kts | 188° |
| 2026-05-06 15:31 | 50.18099 | 8.82626 | 29785 ft | 277 kts | 188° |
| 2026-05-06 15:31 | 50.16188 | 8.82232 | 29789 ft | 276 kts | 188° |
| 2026-05-06 15:31 | 50.14284 | 8.81827 | 29789 ft | 277 kts | 189° |
| 2026-05-06 15:32 | 50.10452 | 8.81033 | 29614 ft | 280 kts | 188° |
| 2026-05-06 15:32 | 50.08532 | 8.80628 | 29307 ft | 275 kts | 188° |
| 2026-05-06 15:32 | 50.06638 | 8.80235 | 28973 ft | 274 kts | 188° |
| 2026-05-06 15:32 | 50.04753 | 8.79731 | 28568 ft | 277 kts | 193° |
| 2026-05-06 15:33 | 50.02869 | 8.79059 | 28200 ft | 281 kts | 193° |
| 2026-05-06 15:33 | 50.00987 | 8.78401 | 27822 ft | 280 kts | 193° |
| 2026-05-06 15:33 | 49.99094 | 8.77750 | 27455 ft | 277 kts | 193° |
| 2026-05-06 15:33 | 49.97217 | 8.77100 | 27213 ft | 275 kts | 193° |
| 2026-05-06 15:34 | 49.95298 | 8.76435 | 26780 ft | 285 kts | 193° |
| 2026-05-06 15:34 | 49.93362 | 8.75766 | 26344 ft | 286 kts | 193° |
| 2026-05-06 15:34 | 49.91405 | 8.75087 | 25936 ft | 282 kts | 193° |
| 2026-05-06 15:34 | 49.89501 | 8.74433 | 25625 ft | 280 kts | 193° |
| 2026-05-06 15:35 | 49.87569 | 8.73766 | 25202 ft | 289 kts | 193° |
| 2026-05-06 15:35 | 49.85602 | 8.73084 | 24810 ft | 288 kts | 193° |
| 2026-05-06 15:35 | 49.83660 | 8.72421 | 24470 ft | 286 kts | 193° |
| 2026-05-06 15:35 | 49.81695 | 8.71754 | 24111 ft | 289 kts | 193° |
| 2026-05-06 15:36 | 49.79716 | 8.71069 | 23673 ft | 293 kts | 193° |
| 2026-05-06 15:36 | 49.77731 | 8.70380 | 23266 ft | 292 kts | 193° |
| 2026-05-06 15:36 | 49.75768 | 8.69711 | 22855 ft | 292 kts | 193° |
| 2026-05-06 15:36 | 49.73788 | 8.69044 | 22468 ft | 291 kts | 191° |
| 2026-05-06 15:37 | 49.71759 | 8.68749 | 22103 ft | 297 kts | 185° |
| 2026-05-06 15:37 | 49.69692 | 8.68481 | 21689 ft | 297 kts | 186° |
| 2026-05-06 15:37 | 49.67615 | 8.68183 | 21293 ft | 295 kts | 186° |
| 2026-05-06 15:37 | 49.65573 | 8.67902 | 20927 ft | 296 kts | 185° |
| 2026-05-06 15:38 | 49.63530 | 8.67635 | 20509 ft | 299 kts | 186° |
| 2026-05-06 15:38 | 49.61469 | 8.67362 | 20118 ft | 296 kts | 186° |
| 2026-05-06 15:38 | 49.59418 | 8.67084 | 19725 ft | 296 kts | 186° |
| 2026-05-06 15:38 | 49.57343 | 8.66804 | 19328 ft | 301 kts | 186° |
| 2026-05-06 15:39 | 49.55263 | 8.66527 | 18924 ft | 300 kts | 185° |
| 2026-05-06 15:39 | 49.53173 | 8.66250 | 18535 ft | 302 kts | 185° |
| 2026-05-06 15:39 | 49.51045 | 8.65968 | 18119 ft | 303 kts | 185° |
| 2026-05-06 15:39 | 49.48952 | 8.65687 | 17686 ft | 301 kts | 185° |
| 2026-05-06 15:40 | 49.46889 | 8.65412 | 17277 ft | 305 kts | 186° |
| 2026-05-06 15:40 | 49.44790 | 8.65134 | 16818 ft | 300 kts | 186° |
| 2026-05-06 15:40 | 49.42709 | 8.64858 | 16417 ft | 301 kts | 186° |
| 2026-05-06 15:40 | 49.40624 | 8.64581 | 16016 ft | 299 kts | 186° |
| 2026-05-06 15:41 | 49.38578 | 8.64307 | 15621 ft | 295 kts | 186° |
| 2026-05-06 15:41 | 49.36520 | 8.64032 | 15239 ft | 295 kts | 186° |
| 2026-05-06 15:41 | 49.34467 | 8.63760 | 14870 ft | 297 kts | 186° |
| 2026-05-06 15:41 | 49.32427 | 8.63495 | 14469 ft | 291 kts | 186° |
| 2026-05-06 15:42 | 49.30396 | 8.63189 | 14118 ft | 294 kts | 187° |
| 2026-05-06 15:42 | 49.28373 | 8.62849 | 13725 ft | 290 kts | 188° |
| 2026-05-06 15:42 | 49.26376 | 8.62534 | 13322 ft | 288 kts | 187° |
| 2026-05-06 15:42 | 49.24373 | 8.62248 | 12939 ft | 291 kts | 187° |
| 2026-05-06 15:43 | 49.22376 | 8.61938 | 12565 ft | 285 kts | 188° |
| 2026-05-06 15:43 | 49.20406 | 8.61618 | 12194 ft | 288 kts | 187° |
| 2026-05-06 15:43 | 49.18400 | 8.61303 | 11819 ft | 288 kts | 187° |
| 2026-05-06 15:43 | 49.16442 | 8.61007 | 11443 ft | 281 kts | 187° |
| 2026-05-06 15:44 | 49.14503 | 8.60709 | 11080 ft | 281 kts | 187° |
| 2026-05-06 15:44 | 49.12542 | 8.60409 | 10709 ft | 282 kts | 187° |
| 2026-05-06 15:44 | 49.11235 | 8.60215 | 10460 ft | 278 kts | 187° |
| 2026-05-06 15:44 | 49.09314 | 8.59930 | 10086 ft | 278 kts | 188° |
| 2026-05-06 15:45 | 49.07415 | 8.59643 | 9732 ft | 279 kts | 186° |
| 2026-05-06 15:45 | 49.05467 | 8.59327 | 9335 ft | 275 kts | 191° |
| 2026-05-06 15:45 | 49.03656 | 8.58480 | 8949 ft | 271 kts | 204° |
| 2026-05-06 15:45 | 49.02056 | 8.57057 | 8594 ft | 270 kts | 217° |
| 2026-05-06 15:46 | 49.00716 | 8.55128 | 8254 ft | 260 kts | 230° |
| 2026-05-06 15:46 | 48.99701 | 8.52829 | 7920 ft | 262 kts | 242° |
| 2026-05-06 15:46 | 48.99052 | 8.50286 | 7548 ft | 256 kts | 254° |
| 2026-05-06 15:46 | 48.98780 | 8.47577 | 7211 ft | 260 kts | 265° |
| 2026-05-06 15:47 | 48.98667 | 8.44817 | 6880 ft | 259 kts | 265° |
| 2026-05-06 15:47 | 48.98534 | 8.42114 | 6530 ft | 257 kts | 265° |
| 2026-05-06 15:47 | 48.98401 | 8.39405 | 6196 ft | 254 kts | 265° |
| 2026-05-06 15:47 | 48.98276 | 8.36740 | 5836 ft | 253 kts | 265° |
| 2026-05-06 15:48 | 48.98148 | 8.34073 | 5513 ft | 251 kts | 265° |
| 2026-05-06 15:48 | 48.98020 | 8.31449 | 5182 ft | 243 kts | 264° |
| 2026-05-06 15:48 | 48.97906 | 8.29024 | 4902 ft | 216 kts | 264° |
| 2026-05-06 15:48 | 48.97697 | 8.26898 | 4672 ft | 192 kts | 249° |
| 2026-05-06 15:49 | 48.96918 | 8.25404 | 4429 ft | 175 kts | 218° |
| 2026-05-06 15:49 | 48.95865 | 8.24612 | 4226 ft | 166 kts | 207° |
| 2026-05-06 15:49 | 48.94853 | 8.23886 | 4029 ft | 153 kts | 210° |
| 2026-05-06 15:49 | 48.93979 | 8.23131 | 3900 ft | 139 kts | 214° |
| 2026-05-06 15:50 | 48.93175 | 8.22402 | 3730 ft | 130 kts | 214° |
| 2026-05-06 15:50 | 48.92466 | 8.21729 | 3573 ft | 113 kts | 217° |
| 2026-05-06 15:50 | 48.91809 | 8.21112 | 3426 ft | 110 kts | 216° |
| 2026-05-06 15:50 | 48.91154 | 8.20489 | 3279 ft | 113 kts | 215° |
| 2026-05-06 15:51 | 48.90482 | 8.19863 | 3128 ft | 113 kts | 215° |
| 2026-05-06 15:51 | 48.89823 | 8.19234 | 2977 ft | 111 kts | 214° |
| 2026-05-06 15:51 | 48.89165 | 8.18618 | 2829 ft | 111 kts | 215° |
| 2026-05-06 15:51 | 48.88507 | 8.17991 | 2679 ft | 113 kts | 213° |
| 2026-05-06 15:52 | 48.87833 | 8.17362 | 2526 ft | 115 kts | 214° |
| 2026-05-06 15:52 | 48.87165 | 8.16727 | 2372 ft | 111 kts | 214° |
| 2026-05-06 15:52 | 48.86519 | 8.16116 | 2221 ft | 110 kts | 215° |
| 2026-05-06 15:52 | 48.85858 | 8.15497 | 2077 ft | 113 kts | 214° |
| 2026-05-06 15:53 | 48.85180 | 8.14864 | 1924 ft | 117 kts | 213° |
| 2026-05-06 15:53 | 48.84494 | 8.14213 | 1755 ft | 115 kts | 216° |
| 2026-05-06 15:53 | 48.83835 | 8.13591 | 1595 ft | 106 kts | 212° |
| 2026-05-06 15:53 | 48.83236 | 8.13034 | 1452 ft | 97 kts | 212° |
| 2026-05-06 15:54 | 48.82678 | 8.12500 | 1319 ft | 94 kts | 211° |
| 2026-05-06 15:54 | 48.82122 | 8.11984 | 1188 ft | 94 kts | 212° |
| 2026-05-06 15:54 | 48.81559 | 8.11458 | 1062 ft | 95 kts | 208° |
| 2026-05-06 15:54 | 48.80997 | 8.10923 | 937 ft | 98 kts | 209° |
| 2026-05-06 15:55 | 48.80402 | 8.10401 | 814 ft | 98 kts | 207° |
| 2026-05-06 15:55 | 48.79819 | 8.09821 | 672 ft | 99 kts | 208° |
| 2026-05-06 15:55 | 48.79248 | 8.09280 | 550 ft | 95 kts | 200° |
| 2026-05-06 15:55 | 48.78697 | 8.08764 | 416 ft | 89 kts | 201° |
| 2026-05-06 15:56 | 48.78247 | 8.08367 | 411 ft | 48 kts | 205° |
| 2026-05-06 15:56 | 48.78014 | 8.08125 | 411 ft | 35 kts | 212° |
| 2026-05-06 15:56 | 48.77899 | 8.08037 | 410 ft | 10 kts | 170° |
| 2026-05-06 15:56 | 48.77856 | 8.08096 | 409 ft | 8 kts | 121° |
| 2026-05-06 15:57 | 48.77826 | 8.08172 | 410 ft | 8 kts | 123° |
| 2026-05-06 15:57 | 48.77775 | 8.08193 | 410 ft | 9 kts | 210° |
| 2026-05-06 15:57 | 48.77717 | 8.08139 | 410 ft | 10 kts | 214° |
| 2026-05-06 15:57 | 48.77647 | 8.08072 | 410 ft | 14 kts | 212° |
| 2026-05-06 15:58 | 48.77555 | 8.07986 | 410 ft | 17 kts | 212° |
| 2026-05-06 15:58 | 48.77440 | 8.07879 | 410 ft | 21 kts | 211° |
| 2026-05-06 15:58 | 48.77313 | 8.07757 | 410 ft | 23 kts | 210° |
| 2026-05-06 15:58 | 48.77179 | 8.07634 | 410 ft | 22 kts | 212° |
| 2026-05-06 15:59 | 48.77064 | 8.07525 | 410 ft | 17 kts | 211° |
| 2026-05-06 15:59 | 48.76985 | 8.07451 | 410 ft | 12 kts | 212° |
| 2026-05-06 15:59 | 48.76908 | 8.07390 | 410 ft | 10 kts | 173° |
| 2026-05-06 15:59 | 48.76894 | 8.07469 | 410 ft | 10 kts | 81° |
| 2026-05-06 16:00 | 48.76888 | 8.07591 | 410 ft | 13 kts | 97° |
| 2026-05-06 16:00 | 48.76877 | 8.07722 | 410 ft | 12 kts | 97° |
| 2026-05-06 16:00 | 48.76892 | 8.07828 | 410 ft | 9 kts | 29° |
| 2026-05-06 16:00 | 48.76921 | 8.07810 | 410 ft | 0 kts | 310° |